createdAt,value
2019-05-21T00:01:55.767Z,13.15
2019-05-21T00:04:28.595Z,13.14
2019-05-21T00:06:58.696Z,13.12
2019-05-21T00:09:29.011Z,13.10
2019-05-21T00:11:59.278Z,13.07
2019-05-21T00:14:29.535Z,13.05
2019-05-21T00:16:59.934Z,13.06
2019-05-21T00:19:30.155Z,13.11
2019-05-21T00:22:01.932Z,13.10
2019-05-21T00:24:32.708Z,13.06
2019-05-21T00:27:03.132Z,13.02
2019-05-21T00:30:28.179Z,12.99
2019-05-21T00:33:53.358Z,12.95
2019-05-21T00:37:01.735Z,12.95
2019-05-21T00:40:27.191Z,12.97
2019-05-21T00:42:57.574Z,12.99
2019-05-21T00:45:29.137Z,13.00
2019-05-21T00:47:59.805Z,12.98
2019-05-21T00:50:30.475Z,12.99
2019-05-21T00:53:00.775Z,13.00
2019-05-21T00:55:30.996Z,13.06
2019-05-21T00:58:01.418Z,13.08
2019-05-21T01:00:31.995Z,13.12
2019-05-21T01:03:02.313Z,13.13
2019-05-21T01:05:33.261Z,13.15
2019-05-21T01:08:03.949Z,13.17
2019-05-21T01:10:34.220Z,13.19
2019-05-21T01:13:04.798Z,13.30
2019-05-21T01:15:35.503Z,13.31
2019-05-21T01:18:05.852Z,13.34
2019-05-21T01:20:36.074Z,13.37
2019-05-21T01:23:06.388Z,13.36
2019-05-21T01:25:37.332Z,13.35
2019-05-21T01:28:07.649Z,13.36
2019-05-21T01:30:38.373Z,13.35
2019-05-21T01:33:08.688Z,13.35
2019-05-21T01:35:39.296Z,13.36
2019-05-21T01:38:09.956Z,13.36
2019-05-21T01:40:40.256Z,13.36
2019-05-21T01:43:10.518Z,13.27
2019-05-21T01:45:41.108Z,13.19
2019-05-21T01:48:11.759Z,13.16
2019-05-21T01:50:42.426Z,13.12
2019-05-21T01:53:12.752Z,13.16
2019-05-21T01:55:43.331Z,13.18
2019-05-21T01:58:14.068Z,13.12
2019-05-21T02:00:44.353Z,13.07
2019-05-21T02:03:14.624Z,13.02
2019-05-21T02:05:45.319Z,12.97
2019-05-21T02:08:15.632Z,12.96
2019-05-21T02:10:45.849Z,12.98
2019-05-21T02:13:16.425Z,13.02
2019-05-21T02:15:46.733Z,13.02
2019-05-21T02:18:17.037Z,13.04
2019-05-21T02:20:47.644Z,13.03
2019-05-21T02:23:19.496Z,13.04
2019-05-21T02:25:50.129Z,13.03
2019-05-21T02:28:20.865Z,13.02
2019-05-21T02:30:56.218Z,12.99
2019-05-21T02:33:24.058Z,13.00
2019-05-21T02:35:55.513Z,12.95
2019-05-21T02:38:26.068Z,12.93
2019-05-21T02:40:56.400Z,12.89
2019-05-21T02:43:26.988Z,12.91
2019-05-21T02:45:57.798Z,12.89
2019-05-21T02:48:28.224Z,12.90
2019-05-21T02:50:58.680Z,12.90
2019-05-21T02:53:28.950Z,12.90
2019-05-21T02:55:59.236Z,12.92
2019-05-21T02:58:29.816Z,12.95
2019-05-21T03:01:08.819Z,13.00
2019-05-21T03:03:39.189Z,13.07
2019-05-21T03:06:14.436Z,13.16
2019-05-21T03:08:42.147Z,13.23
2019-05-21T03:11:12.782Z,13.30
2019-05-21T03:13:43.109Z,13.37
2019-05-21T03:16:13.797Z,13.46
2019-05-21T03:18:44.464Z,13.55
2019-05-21T03:21:15.285Z,13.63
2019-05-21T03:23:45.645Z,13.76
2019-05-21T03:26:15.837Z,13.85
2019-05-21T03:28:46.069Z,13.95
2019-05-21T03:31:16.763Z,14.20
2019-05-21T03:33:47.144Z,14.80
2019-05-21T03:36:32.405Z,14.90
2019-05-21T03:38:50.137Z,14.78
2019-05-21T03:41:20.808Z,14.57
2019-05-21T03:43:51.481Z,14.39
2019-05-21T03:46:22.231Z,14.29
2019-05-21T03:48:52.582Z,14.20
2019-05-21T03:51:23.209Z,14.12
2019-05-21T03:53:54.217Z,14.05
2019-05-21T03:56:24.874Z,13.98
2019-05-21T03:58:55.639Z,13.95
2019-05-21T04:01:26.322Z,13.95
2019-05-21T04:03:56.996Z,14.04
2019-05-21T04:06:28.967Z,14.16
2019-05-21T04:08:59.898Z,14.33
2019-05-21T04:11:32.230Z,14.56
2019-05-21T04:14:02.905Z,14.75
2019-05-21T04:16:40.908Z,14.98
2019-05-21T04:19:13.282Z,15.09
2019-05-21T04:21:44.106Z,15.30
2019-05-21T04:24:15.940Z,15.36
2019-05-21T04:26:46.883Z,15.37
2019-05-21T04:29:17.530Z,15.32
2019-05-21T04:31:48.199Z,15.29
2019-05-21T04:34:18.517Z,15.29
2019-05-21T04:36:48.919Z,15.36
2019-05-21T04:39:20.707Z,15.44
2019-05-21T04:41:51.262Z,15.53
2019-05-21T04:44:21.681Z,15.62
2019-05-21T04:46:52.358Z,15.76
2019-05-21T04:49:23.160Z,15.80
2019-05-21T04:51:53.539Z,15.83
2019-05-21T04:54:24.436Z,15.78
2019-05-21T04:56:55.079Z,15.86
2019-05-21T04:59:25.327Z,15.96
2019-05-21T05:01:55.617Z,16.18
2019-05-21T05:04:26.229Z,16.45
2019-05-21T05:06:56.905Z,16.90
2019-05-21T05:09:27.560Z,17.28
2019-05-21T05:11:57.895Z,17.39
2019-05-21T05:14:28.504Z,17.33
2019-05-21T05:16:58.886Z,17.26
2019-05-21T05:19:29.524Z,17.06
2019-05-21T05:22:00.321Z,17.05
2019-05-21T05:24:31.175Z,17.09
2019-05-21T05:27:01.471Z,17.15
2019-05-21T05:29:32.104Z,17.02
2019-05-21T05:32:02.900Z,16.94
2019-05-21T05:34:33.633Z,16.89
2019-05-21T05:37:04.346Z,16.82
2019-05-21T05:39:34.640Z,16.77
2019-05-21T05:42:05.294Z,16.77
2019-05-21T05:44:35.588Z,16.79
2019-05-21T05:47:05.837Z,16.84
2019-05-21T05:49:38.063Z,17.15
2019-05-21T05:52:08.798Z,17.52
2019-05-21T05:54:39.465Z,17.82
2019-05-21T05:57:10.130Z,17.79
2019-05-21T05:59:40.434Z,17.87
2019-05-21T06:02:10.688Z,18.22
2019-05-21T06:04:40.905Z,18.06
2019-05-21T06:07:11.202Z,17.92
2019-05-21T06:09:41.785Z,17.99
2019-05-21T06:12:12.231Z,17.97
2019-05-21T06:14:42.480Z,18.03
2019-05-21T06:17:14.319Z,18.10
2019-05-21T06:19:44.983Z,18.11
2019-05-21T06:22:15.332Z,18.29
2019-05-21T06:24:45.944Z,18.44
2019-05-21T06:27:16.621Z,18.58
2019-05-21T06:29:46.947Z,18.75
2019-05-21T06:32:17.515Z,19.19
2019-05-21T06:34:48.781Z,20.20
2019-05-21T06:37:19.837Z,21.03
2019-05-21T06:39:50.218Z,21.28
2019-05-21T06:42:20.802Z,21.26
2019-05-21T06:44:51.105Z,21.42
2019-05-21T06:47:21.668Z,21.71
2019-05-21T06:49:51.996Z,22.52
2019-05-21T06:52:22.228Z,23.03
2019-05-21T06:54:53.087Z,23.59
2019-05-21T06:57:23.846Z,23.79
2019-05-21T06:59:54.550Z,24.27
2019-05-21T07:02:25.254Z,24.44
2019-05-21T09:17:58.557Z,24.91
2019-05-21T09:20:29.133Z,25.04
2019-05-21T09:22:59.787Z,25.25
2019-05-21T09:25:30.649Z,24.93
2019-05-21T09:28:01.234Z,24.68
2019-05-21T09:30:31.871Z,24.06
2019-05-21T09:33:02.583Z,23.51
2019-05-21T09:35:33.240Z,23.04
2019-05-21T09:38:03.725Z,22.65
2019-05-21T09:40:34.704Z,22.43
2019-05-21T09:43:05.015Z,22.36
2019-05-21T09:45:35.233Z,22.40
2019-05-21T09:48:05.565Z,22.76
2019-05-21T09:50:36.146Z,23.18
2019-05-21T09:53:06.718Z,23.57
2019-05-21T09:55:37.297Z,23.55
2019-05-21T09:58:10.711Z,23.81
2019-05-21T10:00:55.528Z,24.34
2019-05-21T10:03:27.802Z,24.80
2019-05-21T10:05:58.540Z,25.68
2019-05-21T10:08:29.167Z,27.12
2019-05-21T10:10:59.445Z,27.41
2019-05-21T10:13:29.687Z,27.36
2019-05-21T10:16:01.484Z,27.08
2019-05-21T10:18:31.813Z,26.80
2019-05-21T10:21:02.385Z,26.87
2019-05-21T10:23:32.692Z,27.24
2019-05-21T10:26:03.405Z,27.69
2019-05-21T10:28:33.690Z,28.30
2019-05-21T10:31:04.663Z,28.71
2019-05-21T10:33:35.089Z,29.15
2019-05-21T10:36:06.227Z,29.49
2019-05-21T10:38:37.164Z,29.01
2019-05-21T10:41:07.545Z,28.33
2019-05-21T10:43:37.769Z,27.82
2019-05-21T10:46:08.548Z,27.50
2019-05-21T10:48:40.479Z,27.20
2019-05-21T10:51:11.306Z,27.06
2019-05-21T10:53:41.951Z,27.38
2019-05-21T10:56:12.668Z,27.55
2019-05-21T10:58:43.321Z,27.54
2019-05-21T11:01:24.989Z,27.44
2019-05-21T11:04:15.333Z,27.16
2019-05-21T11:06:48.987Z,27.04
2019-05-21T11:09:21.179Z,26.90
2019-05-21T11:11:51.864Z,26.88
2019-05-21T11:14:23.008Z,26.73
2019-05-21T11:16:53.320Z,26.58
2019-05-21T11:19:23.551Z,26.50
2019-05-21T11:21:53.794Z,26.45
2019-05-21T11:24:24.001Z,26.29
2019-05-21T11:26:54.251Z,25.96
2019-05-21T11:29:25.056Z,25.67
2019-05-21T11:31:57.668Z,25.36
2019-05-21T11:34:28.439Z,25.24
2019-05-21T11:36:58.751Z,25.44
2019-05-21T11:39:29.336Z,25.73
2019-05-21T11:42:00.332Z,25.72
2019-05-21T11:44:30.733Z,25.67
2019-05-21T11:47:01.361Z,25.58
2019-05-21T11:49:32.008Z,25.44
2019-05-21T11:52:02.331Z,25.07
2019-05-21T11:54:33.820Z,24.93
2019-05-21T11:57:04.046Z,24.58
2019-05-21T11:59:34.726Z,24.38
2019-05-21T12:02:06.745Z,24.38
2019-05-21T12:04:36.971Z,24.37
2019-05-21T12:07:07.259Z,24.48
2019-05-21T12:09:37.560Z,24.42
2019-05-21T12:12:08.075Z,24.43
2019-05-21T12:14:38.747Z,24.05
2019-05-21T12:18:26.368Z,22.41
2019-05-21T12:20:56.804Z,21.47
2019-05-21T12:23:27.041Z,20.13
2019-05-21T12:25:58.256Z,19.42
2019-05-21T12:28:28.870Z,19.22
2019-05-21T12:34:39.565Z,19.67
2019-05-21T12:37:10.129Z,19.94
2019-05-21T12:39:40.353Z,20.25
2019-05-21T12:42:10.667Z,20.25
2019-05-21T12:44:40.885Z,20.09
2019-05-21T12:47:11.608Z,20.21
2019-05-21T12:49:44.145Z,20.23
2019-05-21T12:52:14.466Z,20.34
2019-05-21T12:54:44.681Z,20.40
2019-05-21T12:57:17.044Z,20.45
2019-05-21T12:59:47.779Z,20.51
2019-05-21T13:02:18.877Z,20.29
2019-05-21T13:04:49.559Z,19.95
2019-05-21T13:07:19.897Z,19.60
2019-05-21T13:09:50.577Z,19.37
2019-05-21T13:12:21.078Z,19.37
2019-05-21T13:14:51.542Z,19.27
2019-05-21T13:17:21.820Z,18.98
2019-05-21T13:19:52.043Z,19.12
2019-05-21T13:22:22.731Z,19.13
2019-05-21T13:24:54.598Z,19.21
2019-05-21T13:27:24.938Z,19.16
2019-05-21T13:29:55.171Z,19.08
2019-05-21T13:32:25.399Z,18.96
2019-05-21T13:34:55.643Z,18.96
2019-05-21T13:37:26.205Z,18.89
2019-05-21T13:39:56.704Z,18.87
2019-05-21T13:42:27.077Z,18.90
2019-05-21T13:44:57.458Z,18.83
2019-05-21T13:47:27.677Z,18.87
2019-05-21T13:49:57.929Z,18.78
2019-05-21T13:52:28.293Z,18.70
2019-05-21T13:54:58.539Z,18.77
2019-05-21T13:57:29.293Z,18.70
2019-05-21T13:59:59.593Z,18.71
2019-05-21T14:02:30.455Z,18.70
2019-05-21T14:05:01.043Z,18.61
2019-05-21T14:07:31.508Z,18.45
2019-05-21T14:10:14.161Z,18.20
2019-05-21T14:12:33.881Z,18.07
2019-05-21T14:15:05.813Z,18.01
2019-05-21T14:17:36.440Z,18.11
2019-05-21T14:20:08.427Z,18.16
2019-05-21T14:22:39.401Z,18.27
2019-05-21T14:25:10.162Z,18.54
2019-05-21T14:27:44.857Z,18.80
2019-05-21T14:30:14.129Z,18.95
2019-05-21T14:32:44.470Z,19.17
2019-05-21T14:35:17.169Z,19.37
2019-05-21T14:37:47.529Z,19.47
2019-05-21T14:40:31.054Z,19.64
2019-05-21T14:43:00.137Z,19.63
2019-05-21T14:45:23.647Z,19.73
2019-05-21T14:47:54.573Z,19.66
2019-05-21T14:50:24.892Z,19.69
2019-05-21T14:52:55.470Z,19.66
2019-05-21T14:55:25.762Z,19.65
2019-05-21T14:57:58.964Z,19.58
2019-05-21T15:00:31.413Z,19.77
2019-05-21T15:03:01.653Z,19.78
2019-05-21T15:05:32.924Z,19.85
2019-05-21T15:08:05.045Z,19.90
2019-05-21T15:10:48.076Z,20.08
2019-05-21T15:13:07.443Z,20.41
2019-05-21T15:15:37.797Z,20.56
2019-05-21T15:18:09.227Z,20.83
2019-05-21T15:20:57.573Z,20.96
2019-05-21T15:23:28.417Z,20.87
2019-05-21T15:25:58.723Z,20.75
2019-05-21T15:28:30.695Z,20.61
2019-05-21T15:31:01.375Z,20.45
2019-05-21T15:33:31.709Z,20.42
2019-05-21T15:36:02.415Z,20.42
2019-05-21T15:38:48.677Z,20.46
2019-05-21T15:41:11.740Z,20.52
2019-05-21T15:43:37.501Z,20.69
2019-05-21T15:46:07.839Z,20.83
2019-05-21T15:48:38.104Z,20.71
2019-05-21T15:51:08.990Z,20.63
2019-05-21T15:53:39.357Z,20.54
2019-05-21T15:56:09.693Z,20.49
2019-05-21T15:58:40.245Z,20.46
2019-05-21T16:01:10.461Z,20.58
2019-05-21T16:03:40.816Z,20.65
2019-05-21T16:06:13.408Z,20.74
2019-05-21T16:08:45.648Z,20.74
2019-05-21T16:11:27.940Z,20.74
2019-05-21T16:13:48.206Z,20.72
2019-05-21T16:16:19.019Z,20.59
2019-05-21T16:18:49.912Z,20.49
2019-05-21T16:21:22.005Z,20.39
2019-05-21T16:23:53.177Z,20.32
2019-05-21T16:26:24.032Z,20.28
2019-05-21T16:28:54.318Z,20.22
2019-05-21T16:31:24.572Z,20.19
2019-05-21T16:33:56.542Z,20.14
2019-05-21T16:36:26.768Z,20.06
2019-05-21T16:38:57.197Z,20.00
2019-05-21T16:41:41.939Z,19.93
2019-05-21T16:43:59.654Z,19.81
2019-05-21T16:46:30.210Z,19.69
2019-05-21T16:49:00.505Z,19.57
2019-05-21T16:51:31.077Z,19.39
2019-05-21T16:54:02.038Z,19.21
2019-05-21T16:56:32.905Z,19.21
2019-05-21T16:59:03.238Z,19.04
2019-05-21T17:01:34.059Z,18.92
2019-05-21T17:04:04.638Z,18.99
2019-05-21T17:06:35.188Z,19.06
2019-05-21T17:09:08.815Z,19.01
2019-05-21T17:11:41.318Z,18.99
2019-05-21T17:14:11.674Z,18.93
2019-05-21T17:16:42.245Z,19.00
2019-05-21T17:19:12.987Z,18.92
2019-05-21T17:21:43.266Z,18.91
2019-05-21T17:24:13.612Z,18.89
2019-05-21T17:26:44.508Z,18.90
2019-05-21T17:29:14.876Z,18.85
2019-05-21T17:31:45.560Z,18.73
2019-05-21T17:34:17.505Z,18.58
2019-05-21T17:36:48.702Z,18.57
2019-05-21T17:39:19.272Z,18.54
2019-05-21T17:41:49.508Z,18.58
2019-05-21T17:44:19.734Z,18.58
2019-05-21T17:46:50.113Z,18.49
2019-05-21T17:49:20.853Z,18.42
2019-05-21T17:51:53.815Z,18.43
2019-05-21T17:54:24.166Z,18.33
2019-05-21T17:56:54.454Z,18.23
2019-05-21T17:59:24.941Z,18.07
2019-05-21T18:01:56.363Z,17.95
2019-05-21T18:04:27.137Z,17.88
2019-05-21T18:06:57.718Z,17.70
2019-05-21T18:09:28.667Z,17.60
2019-05-21T18:11:59.049Z,17.50
2019-05-21T18:14:30.479Z,17.34
2019-05-21T18:17:01.113Z,17.15
2019-05-21T18:19:33.770Z,17.10
2019-05-21T18:22:06.341Z,16.94
2019-05-21T18:24:37.191Z,16.80
2019-05-21T18:27:07.801Z,16.76
2019-05-21T18:29:38.553Z,16.68
2019-05-21T18:32:08.857Z,16.53
2019-05-21T18:34:39.167Z,16.41
2019-05-21T18:37:09.382Z,16.27
2019-05-21T18:39:40.451Z,16.22
2019-05-21T18:42:21.724Z,16.05
2019-05-21T18:44:45.020Z,16.02
2019-05-21T18:47:15.384Z,15.95
2019-05-21T18:49:45.997Z,15.78
2019-05-21T18:52:16.706Z,15.76
2019-05-21T18:54:47.984Z,15.64
2019-05-21T18:57:19.143Z,15.64
2019-05-21T18:59:50.300Z,15.61
2019-05-21T19:02:21.199Z,15.60
2019-05-21T19:04:51.511Z,15.57
2019-05-21T19:07:22.833Z,15.47
2019-05-21T19:09:54.748Z,15.53
2019-05-21T19:12:37.469Z,15.43
2019-05-21T19:14:57.755Z,15.24
2019-05-21T19:17:35.554Z,15.13
2019-05-21T19:20:02.739Z,15.11
2019-05-21T19:22:35.409Z,15.01
2019-05-21T19:25:08.998Z,14.92
2019-05-21T19:27:41.002Z,14.77
2019-05-21T19:30:12.286Z,14.65
2019-05-21T19:32:42.927Z,14.51
2019-05-21T19:35:15.656Z,14.49
2019-05-21T19:37:48.229Z,14.43
2019-05-21T19:40:19.464Z,14.36
2019-05-21T19:42:55.129Z,14.22
2019-05-21T19:45:22.551Z,14.28
2019-05-21T19:47:53.239Z,14.28
2019-05-21T19:50:23.602Z,14.32
2019-05-21T19:52:56.772Z,14.17
2019-05-21T19:55:27.978Z,14.16
2019-05-21T19:57:58.755Z,14.12
2019-05-21T20:00:31.388Z,14.10
2019-05-21T20:03:03.218Z,13.99
2019-05-21T20:05:35.395Z,13.85
2019-05-21T20:08:06.312Z,13.80
2019-05-21T20:10:37.814Z,13.86
2019-05-21T20:13:08.596Z,13.73
2019-05-21T20:15:39.267Z,13.69
2019-05-21T20:18:10.354Z,13.63
2019-05-21T20:20:42.418Z,13.64
2019-05-21T20:23:13.862Z,13.53
2019-05-21T20:25:55.880Z,13.42
2019-05-21T20:28:20.671Z,13.30
2019-05-21T20:30:50.099Z,13.43
2019-05-21T20:33:21.210Z,13.41
2019-05-21T20:35:54.126Z,13.37
2019-05-21T20:38:25.610Z,13.34
2019-05-21T20:40:57.501Z,13.31
2019-05-21T20:43:28.254Z,13.19
2019-05-21T20:45:59.472Z,13.14
2019-05-21T20:48:37.555Z,13.20
2019-05-21T20:51:09.043Z,13.15
2019-05-21T20:53:39.615Z,13.04
2019-05-21T20:56:11.430Z,13.00
2019-05-21T20:58:41.795Z,13.00
2019-05-21T21:01:12.476Z,12.94
2019-05-21T21:03:45.084Z,13.02
2019-05-21T21:06:15.884Z,12.97
2019-05-21T21:08:46.562Z,12.83
2019-05-21T21:11:17.453Z,12.78
2019-05-21T21:13:48.504Z,12.70
2019-05-21T21:16:19.627Z,12.71
2019-05-21T21:18:50.393Z,12.63
2019-05-21T21:21:22.315Z,12.59
2019-05-21T21:23:56.601Z,12.53
2019-05-21T21:26:28.177Z,12.54
2019-05-21T21:28:58.911Z,12.56
2019-05-21T21:31:30.698Z,12.56
2019-05-21T21:34:01.332Z,12.39
2019-05-21T21:36:32.781Z,12.29
2019-05-21T21:39:05.439Z,12.36
2019-05-21T21:41:36.753Z,12.31
2019-05-21T21:44:07.094Z,12.28
2019-05-21T21:46:37.622Z,12.27
2019-05-21T21:49:09.302Z,12.31
2019-05-21T21:51:40.572Z,12.35
2019-05-21T21:54:12.309Z,12.40
2019-05-21T21:56:43.110Z,12.40
2019-05-21T21:59:13.332Z,12.43
2019-05-21T22:01:50.284Z,12.44
2019-05-21T22:04:26.126Z,12.50
2019-05-21T22:06:56.802Z,12.46
2019-05-21T22:09:29.173Z,12.42
2019-05-21T22:12:00.291Z,12.49
2019-05-21T22:14:32.829Z,12.45
2019-05-21T22:17:04.363Z,12.36
2019-05-21T22:19:36.368Z,12.40
2019-05-21T22:22:07.353Z,12.41
2019-05-21T22:24:37.995Z,12.41
2019-05-21T22:27:08.854Z,12.44
2019-05-21T22:29:41.170Z,12.37
2019-05-21T22:32:11.933Z,12.40
2019-05-21T22:34:42.600Z,12.36
2019-05-21T22:37:12.899Z,12.31
2019-05-21T22:39:44.259Z,12.28
2019-05-21T22:42:16.190Z,12.24
2019-05-21T22:44:47.119Z,12.25
2019-05-21T22:47:17.310Z,12.25
2019-05-21T22:49:47.797Z,12.20
2019-05-21T22:52:18.011Z,12.11
2019-05-21T22:54:48.621Z,12.15
2019-05-21T22:57:18.927Z,12.04
2019-05-21T22:59:49.504Z,12.01
2019-05-21T23:02:22.162Z,12.01
2019-05-21T23:04:52.491Z,11.97
2019-05-21T23:07:23.177Z,11.94
2019-05-21T23:09:54.505Z,11.95
2019-05-21T23:12:24.814Z,11.89
2019-05-21T23:14:55.515Z,11.88
2019-05-21T23:17:27.882Z,11.90
2019-05-21T23:20:16.979Z,11.90
2019-05-21T23:22:51.439Z,11.92
2019-05-21T23:25:22.267Z,11.95
2019-05-21T23:27:53.049Z,12.01
2019-05-21T23:30:23.757Z,11.92
2019-05-21T23:32:54.014Z,11.95
2019-05-21T23:35:25.758Z,11.95
2019-05-21T23:37:56.833Z,11.96
2019-05-21T23:40:27.979Z,11.92
2019-05-21T23:42:58.725Z,11.81
2019-05-21T23:45:29.647Z,11.82
2019-05-21T23:48:00.749Z,11.89
2019-05-21T23:50:31.963Z,11.91
2019-05-21T23:53:03.934Z,11.93
2019-05-21T23:55:35.363Z,11.82
2019-05-21T23:58:08.139Z,11.84
